Time;durP1;ratioP1;P1;durP2;ratioP2;P2;SDS_P1;SDS_P2;PMS_P1;PMS_P2;Temp;Humidity;BMP_temperature;BMP_pressure;BME280_temperature;BME280_humidity;BME280_pressure;Samples;Min_cycle;Max_cycle;Signal;HPM_P1;HPM_P2
2023/04/15 12:40:50;;;;;;;6.15;2.83;;;;;;;;;;6305264;28;20405;-58
2023/04/15 12:43:51;;;;;;;6.97;3.03;;;;;;;;;;6303086;28;20052;-59
2023/04/15 12:46:54;;;;;;;6.47;3.17;;;;;;;;;;6306051;28;20047;-55
2023/04/15 12:49:55;;;;;;;6.20;3.20;;;;;;;;;;6305264;28;20048;-57
2023/04/15 12:52:55;;;;;;;6.10;3.60;;;;;;;;;;6301752;28;20126;-56
2023/04/15 12:55:56;;;;;;;8.77;3.90;;;;;;;;;;6306000;28;20068;-55
2023/04/15 12:58:56;;;;;;;5.38;3.05;;;;;;;;;;6304493;28;20399;-54
2023/04/15 13:01:59;;;;;;;5.95;3.47;;;;;;;;;;6303028;28;20121;-59
2023/04/15 13:04:59;;;;;;;6.75;2.85;;;;;;;;;;6304010;28;20080;-59
2023/04/15 13:08:01;;;;;;;6.22;3.05;;;;;;;;;;6303882;28;20083;-59
2023/04/15 13:11:02;;;;;;;6.05;3.13;;;;;;;;;;6305825;28;20040;-58
2023/04/15 13:14:05;;;;;;;6.30;3.05;;;;;;;;;;6301084;28;20414;-61
2023/04/15 13:17:09;;;;;;;4.82;2.90;;;;;;;;;;6303867;28;20060;-56
2023/04/15 13:20:10;;;;;;;7.15;3.00;;;;;;;;;;6302435;28;20048;-55
2023/04/15 14:07:14;;;;;;;5.93;3.28;;;;;;;;;;6301677;28;20386;-59
2023/04/15 14:10:15;;;;;;;4.15;2.67;;;;;;;;;;6302731;28;20498;-58
2023/04/15 14:13:15;;;;;;;6.13;2.88;;;;;;;;;;6297003;28;21370;-55
2023/04/15 14:16:16;;;;;;;4.35;2.88;;;;;;;;;;6300475;28;20056;-58
2023/04/15 14:19:16;;;;;;;4.65;2.90;;;;;;;;;;6301905;28;20051;-57
2023/04/15 14:22:17;;;;;;;5.50;3.30;;;;;;;;;;6296503;28;20528;-54
2023/04/15 14:25:18;;;;;;;6.40;4.10;;;;;;;;;;6298502;28;20055;-56
2023/04/15 14:28:19;;;;;;;7.07;4.40;;;;;;;;;;6299009;28;20576;-56
2023/04/15 14:31:19;;;;;;;4.82;2.80;;;;;;;;;;6299407;28;20036;-60
2023/04/15 14:34:23;;;;;;;6.40;3.30;;;;;;;;;;6295677;28;20073;-59
2023/04/15 14:37:25;;;;;;;6.15;3.10;;;;;;;;;;6301113;28;20052;-58
2023/04/15 14:40:26;;;;;;;5.35;3.20;;;;;;;;;;6300682;28;20062;-55
2023/04/15 14:43:26;;;;;;;5.65;3.88;;;;;;;;;;6295256;28;20063;-58
2023/04/15 14:46:27;;;;;;;7.05;4.13;;;;;;;;;;6299139;28;20178;-58
2023/04/15 14:49:27;;;;;;;10.93;7.18;;;;;;;;;;6299701;28;20048;-57
2023/04/15 14:52:31;;;;;;;10.60;5.05;;;;;;;;;;6295869;28;20105;-55
2023/04/15 14:55:32;;;;;;;7.60;4.38;;;;;;;;;;6296965;28;20556;-59
2023/04/15 14:58:33;;;;;;;16.48;8.50;;;;;;;;;;6299802;28;20468;-55
2023/04/15 15:01:33;;;;;;;21.90;7.88;;;;;;;;;;6298728;28;20098;-55
2023/04/15 15:04:34;;;;;;;10.93;4.28;;;;;;;;;;6295508;28;20189;-55
2023/04/15 15:07:36;;;;;;;5.38;3.30;;;;;;;;;;6300533;28;20044;-56
2023/04/15 15:10:38;;;;;;;6.05;3.53;;;;;;;;;;6300528;28;20131;-58
2023/04/15 15:13:38;;;;;;;6.82;3.97;;;;;;;;;;6294060;28;20040;-58
2023/04/15 15:16:39;;;;;;;9.13;4.00;;;;;;;;;;6291915;28;20560;-56
2023/04/15 15:19:40;;;;;;;5.53;3.35;;;;;;;;;;6282671;28;20052;-55
2023/04/15 15:22:41;;;;;;;6.13;4.00;;;;;;;;;;6277985;28;20079;-54
2023/04/15 15:25:41;;;;;;;6.75;3.78;;;;;;;;;;6280928;28;20421;-59
2023/04/15 15:28:43;;;;;;;9.18;4.70;;;;;;;;;;6280161;28;20461;-53
2023/04/15 15:31:44;;;;;;;9.50;5.20;;;;;;;;;;6279582;28;20053;-56
2023/04/15 15:34:44;;;;;;;5.47;3.03;;;;;;;;;;6274220;28;20068;-59
2023/04/15 15:37:45;;;;;;;6.38;3.97;;;;;;;;;;6281043;28;20049;-60
2023/04/15 15:40:46;;;;;;;7.65;4.50;;;;;;;;;;6280236;28;20048;-55
2023/04/15 15:43:46;;;;;;;6.07;3.83;;;;;;;;;;6274646;28;20032;-56
2023/04/15 15:46:48;;;;;;;5.85;3.33;;;;;;;;;;6280892;28;20120;-57
2023/04/15 15:49:48;;;;;;;16.05;7.00;;;;;;;;;;6280741;28;20260;-52
2023/04/15 15:52:49;;;;;;;8.85;4.47;;;;;;;;;;6275986;28;20049;-49
2023/04/15 15:55:49;;;;;;;7.35;3.70;;;;;;;;;;6279672;28;20130;-56
2023/04/15 15:58:50;;;;;;;14.20;6.88;;;;;;;;;;6282760;28;20122;-51
2023/04/15 16:01:51;;;;;;;13.48;7.35;;;;;;;;;;6278760;28;20044;-51
2023/04/15 16:04:52;;;;;;;7.63;4.10;;;;;;;;;;6276674;28;20143;-53
2023/04/15 16:07:52;;;;;;;7.05;3.92;;;;;;;;;;6278677;28;20817;-54
2023/04/15 16:10:53;;;;;;;6.40;3.35;;;;;;;;;;6276265;28;20072;-52
2023/04/15 16:13:54;;;;;;;9.63;4.53;;;;;;;;;;6270231;28;20047;-53
2023/04/15 16:16:54;;;;;;;9.48;4.93;;;;;;;;;;6276891;28;20048;-52
2023/04/15 16:19:58;;;;;;;9.80;5.80;;;;;;;;;;6274711;28;20048;-54
2023/04/15 16:22:59;;;;;;;12.13;6.45;;;;;;;;;;6282052;28;20415;-58
2023/04/15 16:26:00;;;;;;;10.90;5.10;;;;;;;;;;6290458;28;20037;-54
2023/04/15 16:29:01;;;;;;;16.20;7.43;;;;;;;;;;6286748;28;20068;-59
2023/04/15 16:32:02;;;;;;;6.53;4.22;;;;;;;;;;6283278;28;20514;-54
2023/04/15 16:35:03;;;;;;;6.85;4.40;;;;;;;;;;6283709;28;20165;-59
2023/04/15 16:38:03;;;;;;;8.90;4.70;;;;;;;;;;6287937;28;20845;-53
2023/04/15 16:41:04;;;;;;;7.85;4.65;;;;;;;;;;6285765;28;20044;-53
2023/04/15 16:44:07;;;;;;;8.70;5.30;;;;;;;;;;6280957;28;20051;-52
2023/04/15 16:47:10;;;;;;;11.52;6.07;;;;;;;;;;6285296;28;20113;-52
2023/04/15 16:50:10;;;;;;;14.23;10.45;;;;;;;;;;6287210;28;20051;-54
2023/04/15 16:53:11;;;;;;;11.98;6.60;;;;;;;;;;6281982;28;20410;-51
2023/04/15 16:56:11;;;;;;;12.40;6.18;;;;;;;;;;6285381;28;21194;-52
2023/04/15 16:59:12;;;;;;;17.23;6.57;;;;;;;;;;6283993;28;20050;-57
2023/04/15 17:02:13;;;;;;;12.48;6.10;;;;;;;;;;6275757;28;20044;-53
2023/04/15 17:05:13;;;;;;;11.45;5.90;;;;;;;;;;6281428;28;20056;-51
2023/04/15 17:08:14;;;;;;;13.23;6.68;;;;;;;;;;6285512;28;20066;-54
2023/04/15 17:11:15;;;;;;;9.50;4.28;;;;;;;;;;6284173;28;20063;-58
2023/04/15 17:14:15;;;;;;;9.68;5.07;;;;;;;;;;6278394;28;20064;-54
2023/04/15 17:17:16;;;;;;;13.77;9.15;;;;;;;;;;6283121;28;20067;-57
2023/04/15 17:20:17;;;;;;;18.58;9.75;;;;;;;;;;6287381;28;20037;-49
2023/04/15 17:23:17;;;;;;;21.58;9.52;;;;;;;;;;6285222;28;20048;-54
2023/04/15 17:26:18;;;;;;;19.25;10.10;;;;;;;;;;6281751;28;20044;-51
2023/04/15 17:29:19;;;;;;;17.40;9.50;;;;;;;;;;6284150;28;20056;-51
2023/04/15 17:32:21;;;;;;;20.08;11.40;;;;;;;;;;6278092;28;20043;-52
2023/04/15 17:35:22;;;;;;;;;;;;;;;;;;6285475;28;20052;-52
2023/04/15 17:38:22;;;;;;;16.30;9.63;;;;;;;;;;6283156;28;19928;-54
2023/04/15 17:41:24;;;;;;;16.80;9.20;;;;;;;;;;6285333;28;20055;-54
2023/04/15 17:44:24;;;;;;;13.02;8.23;;;;;;;;;;6280052;28;20389;-57
2023/04/15 17:47:26;;;;;;;14.25;7.57;;;;;;;;;;6286183;28;20106;-54
2023/04/15 17:50:27;;;;;;;16.73;8.63;;;;;;;;;;6284376;28;20056;-58
2023/04/15 17:53:28;;;;;;;17.17;9.00;;;;;;;;;;6285245;28;20055;-57
2023/04/15 17:56:28;;;;;;;17.55;9.45;;;;;;;;;;6284333;28;20087;-58
2023/04/15 17:59:29;;;;;;;20.67;10.27;;;;;;;;;;6288058;28;20122;-56
2023/04/15 18:02:30;;;;;;;17.77;9.40;;;;;;;;;;6283027;28;20451;-59
2023/04/15 18:05:31;;;;;;;12.50;7.15;;;;;;;;;;6282819;28;20059;-53
2023/04/15 18:08:31;;;;;;;11.77;6.90;;;;;;;;;;6290510;28;20103;-50
2023/04/15 18:11:32;;;;;;;12.55;6.88;;;;;;;;;;6287803;28;20061;-57
2023/04/15 18:14:34;;;;;;;11.40;6.25;;;;;;;;;;6284512;28;20059;-53
2023/04/15 18:17:35;;;;;;;12.05;6.65;;;;;;;;;;6286163;28;20052;-56
2023/04/15 18:20:36;;;;;;;12.18;6.82;;;;;;;;;;6287829;28;20040;-52
2023/04/15 18:23:37;;;;;;;11.73;6.97;;;;;;;;;;6281165;28;20056;-55
2023/04/15 18:26:38;;;;;;;13.55;8.00;;;;;;;;;;6285896;28;20075;-52
2023/04/15 18:29:39;;;;;;;17.15;8.88;;;;;;;;;;6287456;28;20040;-56
2023/04/15 18:32:39;;;;;;;15.25;8.75;;;;;;;;;;6286341;28;20060;-53
2023/04/15 18:35:41;;;;;;;16.10;8.88;;;;;;;;;;6285144;28;20052;-53
2023/04/15 18:38:44;;;;;;;16.70;9.47;;;;;;;;;;6288303;28;20503;-53
2023/04/15 18:41:44;;;;;;;17.77;10.07;;;;;;;;;;6276017;28;20289;-50
2023/04/15 18:44:45;;;;;;;20.33;10.40;;;;;;;;;;6275437;28;20057;-51
2023/04/15 18:47:46;;;;;;;33.47;14.88;;;;;;;;;;6279545;28;20404;-55
2023/04/15 18:50:47;;;;;;;36.00;16.30;;;;;;;;;;6278435;28;20048;-50
2023/04/15 18:53:48;;;;;;;26.60;13.63;;;;;;;;;;6277626;28;20033;-57
2023/04/15 18:56:50;;;;;;;18.42;10.40;;;;;;;;;;6282473;28;20497;-51
2023/04/15 18:59:51;;;;;;;18.02;8.70;;;;;;;;;;6285099;28;20057;-51
2023/04/15 19:02:52;;;;;;;17.80;9.80;;;;;;;;;;6280213;28;20732;-58
2023/04/15 19:05:53;;;;;;;22.90;9.48;;;;;;;;;;6282052;28;20147;-50
2023/04/15 19:08:53;;;;;;;18.00;9.50;;;;;;;;;;6282789;28;20059;-51
2023/04/15 19:11:55;;;;;;;21.52;11.38;;;;;;;;;;6280777;28;20053;-55
2023/04/15 19:14:56;;;;;;;18.42;10.05;;;;;;;;;;6280492;28;20057;-54
2023/04/15 19:17:57;;;;;;;24.17;12.38;;;;;;;;;;6284579;28;20135;-53
2023/04/15 19:20:57;;;;;;;21.30;11.38;;;;;;;;;;6282946;28;20048;-50
2023/04/15 19:23:59;;;;;;;22.83;11.88;;;;;;;;;;6279074;28;20041;-56
2023/04/15 19:27:00;;;;;;;22.13;11.77;;;;;;;;;;6282260;28;20123;-50
2023/04/15 19:30:02;;;;;;;23.63;12.75;;;;;;;;;;6283459;28;20041;-53
2023/04/15 19:33:02;;;;;;;26.80;13.70;;;;;;;;;;6278884;28;20652;-55
2023/04/15 19:36:04;;;;;;;20.92;11.90;;;;;;;;;;6279909;28;20313;-54
2023/04/15 19:39:05;;;;;;;24.42;12.80;;;;;;;;;;6283369;28;20135;-52
2023/04/15 19:42:06;;;;;;;21.52;12.45;;;;;;;;;;6276721;28;20064;-54
2023/04/15 19:45:07;;;;;;;24.67;13.45;;;;;;;;;;6280058;28;20052;-50
2023/04/15 19:48:08;;;;;;;26.67;13.55;;;;;;;;;;6283784;28;20044;-55
2023/04/15 19:51:08;;;;;;;22.35;12.52;;;;;;;;;;6282852;28;20147;-52
2023/04/15 19:54:09;;;;;;;24.95;13.15;;;;;;;;;;6277200;28;20041;-51
2023/04/15 19:57:10;;;;;;;23.38;12.82;;;;;;;;;;6281891;28;20071;-53
2023/04/15 20:00:11;;;;;;;24.38;13.07;;;;;;;;;;6283105;28;20049;-52
2023/04/15 20:03:12;;;;;;;21.95;12.82;;;;;;;;;;6277064;28;20837;-58
2023/04/15 20:06:15;;;;;;;23.05;13.00;;;;;;;;;;6280062;28;20044;-52
2023/04/15 20:09:16;;;;;;;23.23;12.90;;;;;;;;;;6283451;28;20048;-52
2023/04/15 20:12:17;;;;;;;24.65;14.63;;;;;;;;;;6278564;28;20098;-53
2023/04/15 20:15:18;;;;;;;24.05;12.90;;;;;;;;;;6278487;28;20053;-52
2023/04/15 20:18:18;;;;;;;22.75;12.77;;;;;;;;;;6283125;28;20396;-53
2023/04/15 20:21:19;;;;;;;21.75;12.80;;;;;;;;;;6282626;28;20447;-50
2023/04/15 20:24:20;;;;;;;20.33;12.70;;;;;;;;;;6274046;28;20053;-52
2023/04/15 20:27:21;;;;;;;23.88;14.27;;;;;;;;;;6281558;28;20146;-54
2023/04/15 20:30:21;;;;;;;26.48;15.50;;;;;;;;;;6282584;28;20055;-52
2023/04/15 20:33:24;;;;;;;30.80;17.73;;;;;;;;;;6277943;28;20055;-55
2023/04/15 20:36:25;;;;;;;33.03;16.90;;;;;;;;;;6278603;28;20053;-52
2023/04/15 20:39:26;;;;;;;33.03;18.00;;;;;;;;;;6282269;28;20044;-54
2023/04/15 20:42:26;;;;;;;31.27;17.55;;;;;;;;;;6277014;28;20053;-56
2023/04/15 20:45:27;;;;;;;29.45;16.60;;;;;;;;;;6279951;28;20063;-56
2023/04/15 20:48:27;;;;;;;32.95;17.58;;;;;;;;;;6282322;28;20566;-58
2023/04/15 20:51:31;;;;;;;30.70;17.58;;;;;;;;;;6281556;28;20041;-56
2023/04/15 20:54:32;;;;;;;32.10;17.95;;;;;;;;;;6277188;28;20072;-54
2023/04/15 20:57:33;;;;;;;29.98;17.40;;;;;;;;;;6279389;28;20045;-56
2023/04/15 21:00:34;;;;;;;32.55;17.60;;;;;;;;;;6281254;28;20049;-57
2023/04/15 21:03:34;;;;;;;29.55;17.40;;;;;;;;;;6277186;28;20052;-56
2023/04/15 21:06:35;;;;;;;29.60;17.25;;;;;;;;;;6279023;28;20446;-57
2023/04/15 21:09:37;;;;;;;28.65;16.65;;;;;;;;;;6281661;28;20045;-53
2023/04/15 21:12:39;;;;;;;;;;;;;;;;;;6277047;28;20037;-58
2023/04/15 21:15:40;;;;;;;49.83;30.58;;;;;;;;;;6278266;28;19920;-58
2023/04/15 21:18:41;;;;;;;56.30;31.67;;;;;;;;;;6281181;28;20051;-55
2023/04/15 21:21:41;;;;;;;67.38;40.47;;;;;;;;;;6276070;28;20037;-59
2023/04/15 21:24:42;;;;;;;95.15;50.78;;;;;;;;;;6279003;28;20483;-58
2023/04/15 21:27:42;;;;;;;73.65;38.58;;;;;;;;;;6279951;28;20502;-54
2023/04/15 21:30:44;;;;;;;61.85;33.85;;;;;;;;;;6281002;28;20563;-56
2023/04/15 21:33:45;;;;;;;71.90;34.67;;;;;;;;;;6276270;28;20033;-59
2023/04/15 21:36:46;;;;;;;53.28;28.58;;;;;;;;;;6278585;28;20048;-58
2023/04/15 21:39:46;;;;;;;52.08;27.42;;;;;;;;;;6281030;28;20061;-60
2023/04/15 21:42:48;;;;;;;42.97;22.77;;;;;;;;;;6277583;28;20056;-58
2023/04/15 21:45:48;;;;;;;47.35;23.23;;;;;;;;;;6277226;28;20055;-50
2023/04/15 21:48:49;;;;;;;45.15;24.85;;;;;;;;;;6270611;28;20040;-50
2023/04/15 21:51:50;;;;;;;36.97;19.23;;;;;;;;;;6270615;28;21403;-55
2023/04/15 21:54:50;;;;;;;37.78;20.33;;;;;;;;;;6268318;28;20441;-58
2023/04/15 21:57:51;;;;;;;38.38;20.42;;;;;;;;;;6268793;28;20147;-52
2023/04/15 22:00:56;;;;;;;39.63;20.58;;;;;;;;;;6268705;28;20057;-50
2023/04/15 22:03:56;;;;;;;38.10;19.73;;;;;;;;;;6263824;28;20053;-49
2023/04/15 22:07:00;;;;;;;38.38;19.90;;;;;;;;;;6269769;28;20499;-56
2023/04/15 22:10:00;;;;;;;36.17;19.15;;;;;;;;;;6270108;28;20041;-55
2023/04/15 22:13:02;;;;;;;40.35;20.85;;;;;;;;;;6268178;28;20059;-50
2023/04/15 22:16:03;;;;;;;34.50;20.15;;;;;;;;;;6265749;28;20098;-52
2023/04/15 22:19:04;;;;;;;37.05;20.40;;;;;;;;;;6270754;28;20044;-52
2023/04/15 22:22:04;;;;;;;37.00;19.40;;;;;;;;;;6266885;28;20045;-51
2023/04/15 22:25:06;;;;;;;34.13;19.42;;;;;;;;;;6267562;28;20048;-54
2023/04/15 22:28:07;;;;;;;37.80;19.90;;;;;;;;;;6272050;28;20052;-54
2023/04/15 22:31:08;;;;;;;33.78;19.27;;;;;;;;;;6273943;28;20049;-50
2023/04/15 22:34:08;;;;;;;35.60;19.23;;;;;;;;;;6270304;28;20054;-52
2023/04/15 22:37:10;;;;;;;34.17;19.00;;;;;;;;;;6271649;28;20418;-56
2023/04/15 22:40:11;;;;;;;37.67;20.17;;;;;;;;;;6272258;28;20144;-52
2023/04/15 22:43:11;;;;;;;30.95;19.50;;;;;;;;;;6271401;28;20044;-50
2023/04/15 22:46:12;;;;;;;34.30;19.52;;;;;;;;;;6271948;28;20045;-49
2023/04/15 22:49:13;;;;;;;33.78;19.30;;;;;;;;;;6274384;28;20051;-49
2023/04/15 22:52:13;;;;;;;35.53;19.63;;;;;;;;;;6268134;28;20053;-51
2023/04/15 22:55:14;;;;;;;34.50;19.20;;;;;;;;;;6274098;28;20420;-50
2023/04/15 22:58:16;;;;;;;32.72;18.67;;;;;;;;;;6275864;28;20458;-51
2023/04/15 23:01:17;;;;;;;35.35;19.02;;;;;;;;;;6279263;28;20037;-48
2023/04/15 23:04:20;;;;;;;35.40;20.10;;;;;;;;;;6270107;28;20419;-53
2023/04/15 23:07:20;;;;;;;38.92;22.00;;;;;;;;;;6271765;28;20055;-51
2023/04/15 23:10:21;;;;;;;37.60;21.63;;;;;;;;;;6270543;28;20480;-52
2023/04/15 23:13:21;;;;;;;36.00;21.10;;;;;;;;;;6269973;28;20118;-57
2023/04/15 23:16:22;;;;;;;36.40;19.63;;;;;;;;;;6266672;28;20511;-48
2023/04/15 23:19:23;;;;;;;35.25;20.50;;;;;;;;;;6267689;28;20040;-53
2023/04/15 23:22:24;;;;;;;34.47;19.98;;;;;;;;;;6268327;28;20041;-51
2023/04/15 23:25:25;;;;;;;34.00;19.27;;;;;;;;;;6280650;28;20442;-49
2023/04/15 23:28:25;;;;;;;34.67;20.08;;;;;;;;;;6291308;28;20071;-51
2023/04/15 23:31:26;;;;;;;35.33;19.55;;;;;;;;;;6293176;28;20432;-52
2023/04/15 23:34:26;;;;;;;31.55;18.60;;;;;;;;;;6291211;28;20114;-51
2023/04/15 23:37:30;;;;;;;31.30;18.52;;;;;;;;;;6278932;28;20060;-51
2023/04/15 23:40:30;;;;;;;37.08;20.27;;;;;;;;;;6268096;28;20048;-50
2023/04/15 23:43:31;;;;;;;38.10;21.95;;;;;;;;;;6267906;28;20072;-57
2023/04/15 23:46:31;;;;;;;35.47;21.48;;;;;;;;;;6266124;28;20049;-51
2023/04/15 23:49:32;;;;;;;33.75;19.42;;;;;;;;;;6267714;28;20074;-49
2023/04/15 23:52:33;;;;;;;37.33;21.40;;;;;;;;;;6269449;28;20098;-54
2023/04/15 23:55:34;;;;;;;37.58;21.23;;;;;;;;;;6273197;28;20622;-48
2023/04/15 23:58:34;;;;;;;34.78;19.40;;;;;;;;;;6267629;28;20037;-48
